DAL1488 KRDU-KATL
Flight info
| Callsign | DAL1488 |
|---|---|
| Flight time | 0h 56m |
| Altitude | 34000 |
| Route | SHPRD4 SHPRD DCT LEAVI OZZZI1 |
| Aircraft | A21N/M-V/N |
Departure
| Time | 2026-05-06 23:16 |
|---|---|
| Airport | Raleigh-Durham International Airport (KRDU) |
Arrival
| Time | 2026-05-07 00:12 |
|---|---|
| Airport | Hartsfield Jackson Atlanta International Airport (KATL) |
| Time | Latitude | Longitude | Altitude | Speed | Heading |
|---|---|---|---|---|---|
| 2026-05-06 22:51 | 35.87960 | -78.79168 | 419 ft | 0 kts | 152° |
| 2026-05-06 23:06 | 35.87967 | -78.79173 | 420 ft | 1 kts | 155° |
| 2026-05-06 23:06 | 35.87976 | -78.79178 | 418 ft | 2 kts | 141° |
| 2026-05-06 23:06 | 35.87985 | -78.79189 | 420 ft | 2 kts | 126° |
| 2026-05-06 23:07 | 35.87991 | -78.79204 | 419 ft | 2 kts | 95° |
| 2026-05-06 23:07 | 35.87990 | -78.79222 | 419 ft | 2 kts | 78° |
| 2026-05-06 23:07 | 35.87986 | -78.79236 | 418 ft | 0 kts | 45° |
| 2026-05-06 23:10 | 35.87994 | -78.79226 | 420 ft | 4 kts | 45° |
| 2026-05-06 23:11 | 35.88050 | -78.79157 | 432 ft | 17 kts | 45° |
| 2026-05-06 23:11 | 35.88142 | -78.79036 | 427 ft | 21 kts | 45° |
| 2026-05-06 23:11 | 35.88250 | -78.78903 | 423 ft | 22 kts | 45° |
| 2026-05-06 23:11 | 35.88364 | -78.78762 | 420 ft | 24 kts | 44° |
| 2026-05-06 23:12 | 35.88500 | -78.78594 | 424 ft | 32 kts | 44° |
| 2026-05-06 23:12 | 35.88660 | -78.78397 | 424 ft | 33 kts | 45° |
| 2026-05-06 23:12 | 35.88817 | -78.78203 | 424 ft | 31 kts | 45° |
| 2026-05-06 23:12 | 35.88956 | -78.78030 | 418 ft | 29 kts | 50° |
| 2026-05-06 23:13 | 35.89054 | -78.77829 | 421 ft | 26 kts | 45° |
| 2026-05-06 23:13 | 35.89160 | -78.77700 | 415 ft | 15 kts | 45° |
| 2026-05-06 23:13 | 35.89223 | -78.77650 | 420 ft | 6 kts | 356° |
| 2026-05-06 23:13 | 35.89261 | -78.77678 | 416 ft | 8 kts | 316° |
| 2026-05-06 23:14 | 35.89294 | -78.77717 | 427 ft | 0 kts | 315° |
| 2026-05-06 23:14 | 35.89294 | -78.77718 | 428 ft | 2 kts | 315° |
| 2026-05-06 23:15 | 35.89324 | -78.77754 | 432 ft | 14 kts | 316° |
| 2026-05-06 23:15 | 35.89357 | -78.77834 | 426 ft | 7 kts | 258° |
| 2026-05-06 23:15 | 35.89336 | -78.77870 | 424 ft | 7 kts | 227° |
| 2026-05-06 23:15 | 35.89130 | -78.78125 | 421 ft | 87 kts | 224° |
| 2026-05-06 23:16 | 35.88475 | -78.78929 | 435 ft | 175 kts | 225° |
| 2026-05-06 23:16 | 35.87583 | -78.80024 | 1249 ft | 181 kts | 225° |
| 2026-05-06 23:16 | 35.86684 | -78.81136 | 2318 ft | 185 kts | 226° |
| 2026-05-06 23:16 | 35.85795 | -78.82299 | 3413 ft | 187 kts | 228° |
| 2026-05-06 23:17 | 35.84940 | -78.83511 | 4511 ft | 187 kts | 231° |
| 2026-05-06 23:17 | 35.84123 | -78.84808 | 5389 ft | 199 kts | 234° |
| 2026-05-06 23:17 | 35.83288 | -78.86249 | 5986 ft | 199 kts | 235° |
| 2026-05-06 23:17 | 35.82732 | -78.87654 | 6029 ft | 184 kts | 267° |
| 2026-05-06 23:18 | 35.83168 | -78.89357 | 6020 ft | 238 kts | 301° |
| 2026-05-06 23:18 | 35.84163 | -78.91119 | 6019 ft | 265 kts | 306° |
| 2026-05-06 23:18 | 35.85217 | -78.92936 | 6001 ft | 263 kts | 301° |
| 2026-05-06 23:18 | 35.86000 | -78.94998 | 6004 ft | 269 kts | 288° |
| 2026-05-06 23:19 | 35.86401 | -78.97253 | 6003 ft | 270 kts | 277° |
| 2026-05-06 23:19 | 35.86521 | -78.99567 | 5999 ft | 271 kts | 270° |
| 2026-05-06 23:19 | 35.86472 | -79.01883 | 6000 ft | 271 kts | 266° |
| 2026-05-06 23:19 | 35.86327 | -79.04199 | 6000 ft | 271 kts | 264° |
| 2026-05-06 23:20 | 35.86130 | -79.06508 | 6000 ft | 271 kts | 263° |
| 2026-05-06 23:20 | 35.85903 | -79.08814 | 6002 ft | 271 kts | 263° |
| 2026-05-06 23:20 | 35.85662 | -79.11118 | 6001 ft | 271 kts | 262° |
| 2026-05-06 23:20 | 35.85411 | -79.13425 | 6088 ft | 274 kts | 262° |
| 2026-05-06 23:21 | 35.85148 | -79.15793 | 6808 ft | 284 kts | 262° |
| 2026-05-06 23:21 | 35.84880 | -79.18198 | 8175 ft | 281 kts | 262° |
| 2026-05-06 23:21 | 35.84612 | -79.20576 | 9512 ft | 281 kts | 262° |
| 2026-05-06 23:21 | 35.84341 | -79.22973 | 10657 ft | 285 kts | 262° |
| 2026-05-06 23:22 | 35.84065 | -79.25410 | 11465 ft | 290 kts | 262° |
| 2026-05-06 23:22 | 35.83784 | -79.27877 | 11905 ft | 292 kts | 262° |
| 2026-05-06 23:22 | 35.83528 | -79.30383 | 12456 ft | 298 kts | 264° |
| 2026-05-06 23:22 | 35.83322 | -79.32937 | 13540 ft | 301 kts | 264° |
| 2026-05-06 23:23 | 35.83126 | -79.35516 | 14660 ft | 304 kts | 265° |
| 2026-05-06 23:23 | 35.82930 | -79.38125 | 15700 ft | 308 kts | 265° |
| 2026-05-06 23:23 | 35.82730 | -79.40778 | 16674 ft | 313 kts | 264° |
| 2026-05-06 23:23 | 35.82526 | -79.43470 | 17598 ft | 318 kts | 264° |
| 2026-05-06 23:24 | 35.82321 | -79.46172 | 18491 ft | 323 kts | 264° |
| 2026-05-06 23:24 | 35.82106 | -79.48984 | 19388 ft | 328 kts | 264° |
| 2026-05-06 23:24 | 35.81893 | -79.51767 | 20252 ft | 332 kts | 264° |
| 2026-05-06 23:24 | 35.81561 | -79.54603 | 21096 ft | 337 kts | 259° |
| 2026-05-06 23:25 | 35.81103 | -79.57459 | 21899 ft | 342 kts | 258° |
| 2026-05-06 23:25 | 35.80613 | -79.60337 | 22665 ft | 346 kts | 258° |
| 2026-05-06 23:25 | 35.80112 | -79.63258 | 23394 ft | 350 kts | 258° |
| 2026-05-06 23:25 | 35.79606 | -79.66212 | 24087 ft | 354 kts | 258° |
| 2026-05-06 23:26 | 35.79095 | -79.69195 | 24744 ft | 358 kts | 258° |
| 2026-05-06 23:26 | 35.78579 | -79.72215 | 25371 ft | 362 kts | 258° |
| 2026-05-06 23:26 | 35.78058 | -79.75263 | 25980 ft | 366 kts | 258° |
| 2026-05-06 23:26 | 35.77530 | -79.78347 | 26564 ft | 369 kts | 258° |
| 2026-05-06 23:27 | 35.76997 | -79.81456 | 27123 ft | 373 kts | 258° |
| 2026-05-06 23:27 | 35.76459 | -79.84593 | 27664 ft | 376 kts | 258° |
| 2026-05-06 23:27 | 35.75915 | -79.87761 | 28180 ft | 380 kts | 258° |
| 2026-05-06 23:27 | 35.75365 | -79.90959 | 28676 ft | 383 kts | 258° |
| 2026-05-06 23:28 | 35.74810 | -79.94177 | 29156 ft | 386 kts | 258° |
| 2026-05-06 23:28 | 35.74256 | -79.97381 | 29613 ft | 389 kts | 258° |
| 2026-05-06 23:28 | 35.73691 | -80.00649 | 30060 ft | 392 kts | 258° |
| 2026-05-06 23:28 | 35.73120 | -80.03937 | 30483 ft | 394 kts | 258° |
| 2026-05-06 23:29 | 35.72544 | -80.07249 | 30880 ft | 397 kts | 258° |
| 2026-05-06 23:29 | 35.71964 | -80.10586 | 31278 ft | 400 kts | 258° |
| 2026-05-06 23:29 | 35.71370 | -80.13991 | 31663 ft | 403 kts | 258° |
| 2026-05-06 23:29 | 35.70780 | -80.17367 | 32040 ft | 405 kts | 258° |
| 2026-05-06 23:30 | 35.70192 | -80.20725 | 32391 ft | 408 kts | 258° |
| 2026-05-06 23:30 | 35.69592 | -80.24147 | 32682 ft | 412 kts | 258° |
| 2026-05-06 23:30 | 35.68982 | -80.27619 | 32853 ft | 419 kts | 258° |
| 2026-05-06 23:30 | 35.68362 | -80.31145 | 33004 ft | 426 kts | 258° |
| 2026-05-06 23:31 | 35.67729 | -80.34736 | 33163 ft | 432 kts | 258° |
| 2026-05-06 23:31 | 35.67087 | -80.38370 | 33303 ft | 439 kts | 258° |
| 2026-05-06 23:31 | 35.66433 | -80.42064 | 33446 ft | 445 kts | 258° |
| 2026-05-06 23:31 | 35.65763 | -80.45803 | 33585 ft | 451 kts | 256° |
| 2026-05-06 23:32 | 35.64810 | -80.49498 | 33720 ft | 456 kts | 249° |
| 2026-05-06 23:32 | 35.63626 | -80.53137 | 33926 ft | 460 kts | 248° |
| 2026-05-06 23:32 | 35.62391 | -80.56781 | 33996 ft | 462 kts | 247° |
| 2026-05-06 23:33 | 35.59912 | -80.64063 | 33997 ft | 462 kts | 247° |
| 2026-05-06 23:33 | 35.57435 | -80.71352 | 33999 ft | 462 kts | 247° |
| 2026-05-06 23:34 | 35.54957 | -80.78640 | 34000 ft | 462 kts | 247° |
| 2026-05-06 23:34 | 35.52477 | -80.85920 | 34001 ft | 462 kts | 247° |
| 2026-05-06 23:35 | 35.49992 | -80.93198 | 34000 ft | 462 kts | 247° |
| 2026-05-06 23:35 | 35.47505 | -81.00466 | 34001 ft | 462 kts | 247° |
| 2026-05-06 23:36 | 35.45011 | -81.07737 | 34000 ft | 462 kts | 247° |
| 2026-05-06 23:36 | 35.42530 | -81.14955 | 33999 ft | 462 kts | 247° |
| 2026-05-06 23:37 | 35.40030 | -81.22209 | 34000 ft | 462 kts | 247° |
| 2026-05-06 23:37 | 35.37930 | -81.28289 | 34001 ft | 462 kts | 247° |
| 2026-05-06 23:38 | 35.35421 | -81.35539 | 34000 ft | 462 kts | 247° |
| 2026-05-06 23:38 | 35.32920 | -81.42746 | 34001 ft | 462 kts | 247° |
| 2026-05-06 23:39 | 35.30403 | -81.49986 | 34001 ft | 462 kts | 247° |
| 2026-05-06 23:39 | 35.27880 | -81.57225 | 34001 ft | 462 kts | 247° |
| 2026-05-06 23:40 | 35.25352 | -81.64462 | 34001 ft | 462 kts | 247° |
| 2026-05-06 23:40 | 35.22821 | -81.71688 | 34000 ft | 462 kts | 247° |
| 2026-05-06 23:41 | 35.20287 | -81.78910 | 34000 ft | 462 kts | 247° |
| 2026-05-06 23:41 | 35.17746 | -81.86131 | 34001 ft | 462 kts | 247° |
| 2026-05-06 23:42 | 35.15201 | -81.93349 | 34001 ft | 462 kts | 246° |
| 2026-05-06 23:42 | 35.12652 | -82.00562 | 34000 ft | 462 kts | 246° |
| 2026-05-06 23:43 | 35.10115 | -82.07723 | 34001 ft | 462 kts | 246° |
| 2026-05-06 23:43 | 35.07556 | -82.14930 | 34000 ft | 462 kts | 246° |
| 2026-05-06 23:44 | 35.04993 | -82.22132 | 34001 ft | 463 kts | 246° |
| 2026-05-06 23:44 | 35.02425 | -82.29328 | 33999 ft | 462 kts | 246° |
| 2026-05-06 23:45 | 34.99375 | -82.36234 | 34001 ft | 462 kts | 240° |
| 2026-05-06 23:45 | 34.96112 | -82.43001 | 33998 ft | 463 kts | 239° |
| 2026-05-06 23:46 | 34.92911 | -82.49628 | 33836 ft | 440 kts | 239° |
| 2026-05-06 23:46 | 34.91373 | -82.52810 | 33584 ft | 434 kts | 239° |
| 2026-05-06 23:46 | 34.89844 | -82.55976 | 33336 ft | 434 kts | 239° |
| 2026-05-06 23:46 | 34.88311 | -82.59147 | 33087 ft | 435 kts | 239° |
| 2026-05-06 23:47 | 34.86721 | -82.62279 | 32840 ft | 435 kts | 236° |
| 2026-05-06 23:47 | 34.84995 | -82.65318 | 32591 ft | 436 kts | 235° |
| 2026-05-06 23:47 | 34.83244 | -82.68325 | 32338 ft | 435 kts | 234° |
| 2026-05-06 23:47 | 34.81505 | -82.71301 | 32087 ft | 428 kts | 234° |
| 2026-05-06 23:48 | 34.79788 | -82.74243 | 31836 ft | 426 kts | 234° |
| 2026-05-06 23:48 | 34.78101 | -82.77157 | 31596 ft | 426 kts | 235° |
| 2026-05-06 23:48 | 34.76399 | -82.80160 | 31218 ft | 425 kts | 236° |
| 2026-05-06 23:48 | 34.74760 | -82.83069 | 30727 ft | 419 kts | 236° |
| 2026-05-06 23:49 | 34.73127 | -82.85965 | 30228 ft | 412 kts | 236° |
| 2026-05-06 23:49 | 34.71514 | -82.88825 | 29686 ft | 409 kts | 236° |
| 2026-05-06 23:49 | 34.69906 | -82.91672 | 29423 ft | 409 kts | 236° |
| 2026-05-06 23:50 | 34.66687 | -82.97367 | 29335 ft | 408 kts | 236° |
| 2026-05-06 23:50 | 34.63488 | -83.03015 | 28440 ft | 403 kts | 236° |
| 2026-05-06 23:50 | 34.61898 | -83.05818 | 28055 ft | 401 kts | 236° |
| 2026-05-06 23:51 | 34.60321 | -83.08596 | 27684 ft | 399 kts | 236° |
| 2026-05-06 23:51 | 34.58752 | -83.11359 | 27310 ft | 397 kts | 236° |
| 2026-05-06 23:51 | 34.57189 | -83.14108 | 26933 ft | 394 kts | 236° |
| 2026-05-06 23:51 | 34.55636 | -83.16838 | 26558 ft | 392 kts | 236° |
| 2026-05-06 23:52 | 34.54093 | -83.19547 | 26145 ft | 389 kts | 235° |
| 2026-05-06 23:52 | 34.52560 | -83.22239 | 25720 ft | 387 kts | 235° |
| 2026-05-06 23:52 | 34.51033 | -83.24916 | 25295 ft | 384 kts | 235° |
| 2026-05-06 23:52 | 34.49520 | -83.27567 | 24873 ft | 382 kts | 235° |
| 2026-05-06 23:53 | 34.48008 | -83.30204 | 24450 ft | 379 kts | 235° |
| 2026-05-06 23:53 | 34.46517 | -83.32776 | 24023 ft | 376 kts | 235° |
| 2026-05-06 23:53 | 34.45016 | -83.35359 | 23518 ft | 373 kts | 235° |
| 2026-05-06 23:53 | 34.43525 | -83.37922 | 22960 ft | 370 kts | 235° |
| 2026-05-06 23:54 | 34.42046 | -83.40463 | 22335 ft | 368 kts | 235° |
| 2026-05-06 23:54 | 34.40574 | -83.42990 | 21629 ft | 367 kts | 235° |
| 2026-05-06 23:54 | 34.39120 | -83.45485 | 20859 ft | 357 kts | 235° |
| 2026-05-06 23:54 | 34.37712 | -83.47900 | 20098 ft | 346 kts | 235° |
| 2026-05-06 23:55 | 34.36341 | -83.50249 | 19353 ft | 338 kts | 235° |
| 2026-05-06 23:55 | 34.34998 | -83.52549 | 18602 ft | 332 kts | 235° |
| 2026-05-06 23:55 | 34.33673 | -83.54817 | 17854 ft | 329 kts | 235° |
| 2026-05-06 23:55 | 34.32359 | -83.57065 | 17104 ft | 325 kts | 235° |
| 2026-05-06 23:56 | 34.31064 | -83.59280 | 16360 ft | 321 kts | 235° |
| 2026-05-06 23:56 | 34.29773 | -83.61472 | 15622 ft | 317 kts | 233° |
| 2026-05-06 23:56 | 34.28321 | -83.63456 | 15135 ft | 315 kts | 224° |
| 2026-05-06 23:56 | 34.26706 | -83.65255 | 14769 ft | 315 kts | 222° |
| 2026-05-06 23:57 | 34.25073 | -83.66996 | 14397 ft | 312 kts | 221° |
| 2026-05-06 23:57 | 34.23449 | -83.68718 | 14035 ft | 309 kts | 221° |
| 2026-05-06 23:57 | 34.21834 | -83.70429 | 13888 ft | 308 kts | 221° |
| 2026-05-06 23:57 | 34.20227 | -83.72134 | 13645 ft | 307 kts | 221° |
| 2026-05-06 23:58 | 34.18572 | -83.73892 | 13411 ft | 327 kts | 221° |
| 2026-05-06 23:58 | 34.16851 | -83.75720 | 13156 ft | 325 kts | 221° |
| 2026-05-06 23:58 | 34.15184 | -83.77489 | 12902 ft | 317 kts | 221° |
| 2026-05-06 23:58 | 34.13534 | -83.79240 | 12653 ft | 314 kts | 221° |
| 2026-05-06 23:59 | 34.11897 | -83.80976 | 12390 ft | 312 kts | 221° |
| 2026-05-06 23:59 | 34.10310 | -83.82659 | 12150 ft | 304 kts | 221° |
| 2026-05-06 23:59 | 34.08727 | -83.84349 | 12029 ft | 298 kts | 222° |
| 2026-05-06 23:59 | 34.07127 | -83.85929 | 12003 ft | 297 kts | 214° |
| 2026-05-07 00:00 | 34.05325 | -83.87114 | 11577 ft | 294 kts | 205° |
| 2026-05-07 00:00 | 34.03505 | -83.88107 | 11262 ft | 286 kts | 204° |
| 2026-05-07 00:00 | 34.01716 | -83.89059 | 10968 ft | 278 kts | 204° |
| 2026-05-07 00:00 | 33.99953 | -83.89995 | 10595 ft | 275 kts | 204° |
| 2026-05-07 00:01 | 33.98204 | -83.90923 | 10219 ft | 274 kts | 204° |
| 2026-05-07 00:01 | 33.96463 | -83.91847 | 9843 ft | 273 kts | 204° |
| 2026-05-07 00:01 | 33.94735 | -83.92765 | 9470 ft | 271 kts | 204° |
| 2026-05-07 00:01 | 33.93013 | -83.93678 | 9129 ft | 269 kts | 204° |
| 2026-05-07 00:02 | 33.91321 | -83.94577 | 9027 ft | 262 kts | 204° |
| 2026-05-07 00:02 | 33.89673 | -83.95451 | 9020 ft | 257 kts | 204° |
| 2026-05-07 00:02 | 33.88039 | -83.96319 | 9030 ft | 257 kts | 204° |
| 2026-05-07 00:02 | 33.86401 | -83.97188 | 8875 ft | 257 kts | 204° |
| 2026-05-07 00:03 | 33.84767 | -83.98056 | 8630 ft | 256 kts | 204° |
| 2026-05-07 00:03 | 33.83141 | -83.98919 | 8379 ft | 255 kts | 204° |
| 2026-05-07 00:03 | 33.81520 | -83.99783 | 8135 ft | 254 kts | 204° |
| 2026-05-07 00:03 | 33.79910 | -84.00652 | 7885 ft | 252 kts | 205° |
| 2026-05-07 00:04 | 33.78327 | -84.01509 | 7653 ft | 247 kts | 205° |
| 2026-05-07 00:04 | 33.76779 | -84.02360 | 7444 ft | 244 kts | 206° |
| 2026-05-07 00:04 | 33.75280 | -84.03309 | 7170 ft | 244 kts | 209° |
| 2026-05-07 00:04 | 33.73799 | -84.04299 | 6849 ft | 243 kts | 209° |
| 2026-05-07 00:05 | 33.72237 | -84.05066 | 6522 ft | 243 kts | 197° |
| 2026-05-07 00:05 | 33.70633 | -84.05591 | 6145 ft | 241 kts | 195° |
| 2026-05-07 00:05 | 33.69037 | -84.06125 | 5711 ft | 236 kts | 201° |
| 2026-05-07 00:05 | 33.67601 | -84.07023 | 5295 ft | 231 kts | 217° |
| 2026-05-07 00:06 | 33.66447 | -84.08310 | 5044 ft | 225 kts | 230° |
| 2026-05-07 00:06 | 33.65688 | -84.09927 | 5027 ft | 224 kts | 254° |
| 2026-05-07 00:06 | 33.65334 | -84.11744 | 5027 ft | 223 kts | 260° |
| 2026-05-07 00:06 | 33.65135 | -84.13592 | 5026 ft | 223 kts | 263° |
| 2026-05-07 00:07 | 33.64975 | -84.15445 | 5025 ft | 223 kts | 266° |
| 2026-05-07 00:07 | 33.64946 | -84.17273 | 4899 ft | 212 kts | 270° |
| 2026-05-07 00:07 | 33.64958 | -84.18992 | 4628 ft | 201 kts | 270° |
| 2026-05-07 00:07 | 33.64956 | -84.20637 | 4319 ft | 194 kts | 270° |
| 2026-05-07 00:08 | 33.64954 | -84.22225 | 4029 ft | 187 kts | 270° |
| 2026-05-07 00:08 | 33.64954 | -84.23749 | 3802 ft | 176 kts | 270° |
| 2026-05-07 00:08 | 33.64954 | -84.25167 | 3559 ft | 167 kts | 270° |
| 2026-05-07 00:08 | 33.64954 | -84.26558 | 3342 ft | 167 kts | 270° |
| 2026-05-07 00:09 | 33.64954 | -84.27948 | 3114 ft | 166 kts | 270° |
| 2026-05-07 00:09 | 33.64954 | -84.29269 | 2896 ft | 155 kts | 270° |
| 2026-05-07 00:09 | 33.64954 | -84.30499 | 2698 ft | 142 kts | 270° |
| 2026-05-07 00:09 | 33.64954 | -84.31668 | 2513 ft | 139 kts | 270° |
| 2026-05-07 00:10 | 33.64954 | -84.32841 | 2338 ft | 138 kts | 270° |
| 2026-05-07 00:10 | 33.64954 | -84.33980 | 2152 ft | 138 kts | 270° |
| 2026-05-07 00:10 | 33.64954 | -84.35131 | 1971 ft | 138 kts | 270° |
| 2026-05-07 00:10 | 33.64954 | -84.36280 | 1787 ft | 137 kts | 270° |
| 2026-05-07 00:11 | 33.64954 | -84.37424 | 1605 ft | 137 kts | 270° |
| 2026-05-07 00:11 | 33.64954 | -84.38568 | 1423 ft | 137 kts | 270° |
| 2026-05-07 00:11 | 33.64954 | -84.39708 | 1243 ft | 137 kts | 270° |
| 2026-05-07 00:11 | 33.64954 | -84.40849 | 1063 ft | 136 kts | 270° |
| 2026-05-07 00:12 | 33.64956 | -84.41922 | 1009 ft | 118 kts | 270° |
| 2026-05-07 00:12 | 33.64957 | -84.42692 | 1010 ft | 53 kts | 270° |
| 2026-05-07 00:12 | 33.64950 | -84.43069 | 1009 ft | 39 kts | 262° |
| 2026-05-07 00:12 | 33.64891 | -84.43271 | 1010 ft | 12 kts | 238° |
| 2026-05-07 00:13 | 33.64885 | -84.43283 | 1010 ft | 2 kts | 238° |
| 2026-05-07 00:13 | 33.64844 | -84.43375 | 1009 ft | 28 kts | 250° |
| 2026-05-07 00:13 | 33.64835 | -84.43515 | 1010 ft | 13 kts | 238° |
| 2026-05-07 00:13 | 33.64773 | -84.43564 | 1010 ft | 2 kts | 210° |
| 2026-05-07 00:16 | 33.64769 | -84.43567 | 1010 ft | 6 kts | 210° |
| 2026-05-07 00:16 | 33.64697 | -84.43617 | 1009 ft | 18 kts | 210° |
| 2026-05-07 00:16 | 33.64582 | -84.43670 | 1009 ft | 14 kts | 165° |
| 2026-05-07 00:16 | 33.64539 | -84.43586 | 1010 ft | 11 kts | 95° |
| 2026-05-07 00:17 | 33.64540 | -84.43469 | 1010 ft | 21 kts | 88° |
| 2026-05-07 00:17 | 33.64540 | -84.43273 | 1010 ft | 19 kts | 89° |
| 2026-05-07 00:17 | 33.64530 | -84.43121 | 1010 ft | 9 kts | 121° |
| 2026-05-07 00:17 | 33.64490 | -84.43100 | 1010 ft | 8 kts | 175° |
| 2026-05-07 00:18 | 33.64427 | -84.43122 | 1010 ft | 15 kts | 205° |
| 2026-05-07 00:18 | 33.64301 | -84.43129 | 1010 ft | 20 kts | 180° |
| 2026-05-07 00:18 | 33.64158 | -84.43131 | 1009 ft | 21 kts | 181° |
| 2026-05-07 00:18 | 33.64020 | -84.43129 | 1009 ft | 16 kts | 179° |
| 2026-05-07 00:19 | 33.63955 | -84.43144 | 1009 ft | 4 kts | 232° |
| 2026-05-07 00:19 | 33.63943 | -84.43180 | 1009 ft | 4 kts | 261° |
| 2026-05-07 00:19 | 33.63943 | -84.43201 | 1009 ft | 0 kts | 270° |